sensor_id;sensor_type;location;lat;lon;timestamp;P1;durP1;ratioP1;P2;durP2;ratioP2
77248;SDS011;66280;45.124;20.718;2024-02-26T00:08:02;13.30;;;9.63;;
77248;SDS011;66280;45.124;20.718;2024-02-26T00:18:03;16.10;;;9.13;;
77248;SDS011;66280;45.124;20.718;2024-02-26T00:28:05;16.23;;;10.80;;
77248;SDS011;66280;45.124;20.718;2024-02-26T00:38:07;16.08;;;11.15;;
77248;SDS011;66280;45.124;20.718;2024-02-26T00:48:09;16.57;;;9.53;;
77248;SDS011;66280;45.124;20.718;2024-02-26T00:58:10;16.43;;;10.20;;
77248;SDS011;66280;45.124;20.718;2024-02-26T01:08:12;15.85;;;10.43;;
77248;SDS011;66280;45.124;20.718;2024-02-26T01:18:13;11.30;;;8.40;;
77248;SDS011;66280;45.124;20.718;2024-02-26T01:28:15;13.45;;;8.90;;
77248;SDS011;66280;45.124;20.718;2024-02-26T01:38:19;18.20;;;11.60;;
77248;SDS011;66280;45.124;20.718;2024-02-26T01:48:21;13.83;;;8.27;;
77248;SDS011;66280;45.124;20.718;2024-02-26T01:58:22;18.10;;;12.30;;
77248;SDS011;66280;45.124;20.718;2024-02-26T02:08:24;20.13;;;13.17;;
77248;SDS011;66280;45.124;20.718;2024-02-26T02:18:26;18.63;;;11.95;;
77248;SDS011;66280;45.124;20.718;2024-02-26T02:28:27;19.50;;;11.70;;
77248;SDS011;66280;45.124;20.718;2024-02-26T02:38:29;21.47;;;13.10;;
77248;SDS011;66280;45.124;20.718;2024-02-26T02:48:31;22.05;;;12.75;;
77248;SDS011;66280;45.124;20.718;2024-02-26T02:58:32;19.77;;;12.60;;
77248;SDS011;66280;45.124;20.718;2024-02-26T03:08:34;19.65;;;12.65;;
77248;SDS011;66280;45.124;20.718;2024-02-26T03:18:39;21.23;;;12.67;;
77248;SDS011;66280;45.124;20.718;2024-02-26T03:28:44;16.87;;;10.73;;
77248;SDS011;66280;45.124;20.718;2024-02-26T03:38:45;18.70;;;12.40;;
77248;SDS011;66280;45.124;20.718;2024-02-26T03:48:46;20.17;;;13.10;;
77248;SDS011;66280;45.124;20.718;2024-02-26T03:58:48;15.65;;;10.57;;
77248;SDS011;66280;45.124;20.718;2024-02-26T04:08:49;23.67;;;11.90;;
77248;SDS011;66280;45.124;20.718;2024-02-26T04:18:51;16.53;;;10.13;;
77248;SDS011;66280;45.124;20.718;2024-02-26T04:28:54;17.60;;;11.23;;
77248;SDS011;66280;45.124;20.718;2024-02-26T04:38:55;17.40;;;11.50;;
77248;SDS011;66280;45.124;20.718;2024-02-26T04:48:57;18.80;;;11.75;;
77248;SDS011;66280;45.124;20.718;2024-02-26T04:58:59;15.93;;;9.03;;
77248;SDS011;66280;45.124;20.718;2024-02-26T05:09:01;13.17;;;8.53;;
77248;SDS011;66280;45.124;20.718;2024-02-26T05:19:02;14.90;;;9.20;;
77248;SDS011;66280;45.124;20.718;2024-02-26T05:29:04;17.13;;;11.40;;
77248;SDS011;66280;45.124;20.718;2024-02-26T05:39:05;22.27;;;12.63;;
77248;SDS011;66280;45.124;20.718;2024-02-26T05:49:07;19.80;;;10.17;;
77248;SDS011;66280;45.124;20.718;2024-02-26T05:59:09;18.93;;;11.57;;
77248;SDS011;66280;45.124;20.718;2024-02-26T06:09:11;19.38;;;10.30;;
77248;SDS011;66280;45.124;20.718;2024-02-26T06:19:12;16.10;;;9.73;;
77248;SDS011;66280;45.124;20.718;2024-02-26T06:29:14;23.25;;;12.32;;
77248;SDS011;66280;45.124;20.718;2024-02-26T06:39:16;15.40;;;9.73;;
77248;SDS011;66280;45.124;20.718;2024-02-26T06:49:18;19.63;;;10.00;;
77248;SDS011;66280;45.124;20.718;2024-02-26T06:59:20;18.88;;;11.95;;
77248;SDS011;66280;45.124;20.718;2024-02-26T07:09:21;27.03;;;13.07;;
77248;SDS011;66280;45.124;20.718;2024-02-26T07:19:23;17.30;;;11.10;;
77248;SDS011;66280;45.124;20.718;2024-02-26T07:29:24;15.50;;;8.87;;
77248;SDS011;66280;45.124;20.718;2024-02-26T07:39:26;22.33;;;12.57;;
77248;SDS011;66280;45.124;20.718;2024-02-26T07:49:27;19.20;;;12.48;;
77248;SDS011;66280;45.124;20.718;2024-02-26T07:59:29;13.80;;;8.87;;
77248;SDS011;66280;45.124;20.718;2024-02-26T08:09:30;19.45;;;8.93;;
77248;SDS011;66280;45.124;20.718;2024-02-26T08:19:32;15.77;;;9.40;;
77248;SDS011;66280;45.124;20.718;2024-02-26T08:29:33;16.60;;;9.90;;
77248;SDS011;66280;45.124;20.718;2024-02-26T08:39:35;15.82;;;10.30;;
77248;SDS011;66280;45.124;20.718;2024-02-26T08:49:36;13.03;;;9.03;;
77248;SDS011;66280;45.124;20.718;2024-02-26T08:59:37;17.35;;;10.70;;
77248;SDS011;66280;45.124;20.718;2024-02-26T09:09:39;9.27;;;8.10;;
77248;SDS011;66280;45.124;20.718;2024-02-26T09:19:40;11.07;;;7.47;;
77248;SDS011;66280;45.124;20.718;2024-02-26T09:29:43;12.30;;;7.20;;
77248;SDS011;66280;45.124;20.718;2024-02-26T09:39:44;8.23;;;6.20;;
77248;SDS011;66280;45.124;20.718;2024-02-26T09:49:48;9.85;;;8.18;;
77248;SDS011;66280;45.124;20.718;2024-02-26T09:59:50;10.03;;;6.83;;
77248;SDS011;66280;45.124;20.718;2024-02-26T10:09:52;27.67;;;16.97;;
77248;SDS011;66280;45.124;20.718;2024-02-26T10:19:54;22.17;;;13.55;;
77248;SDS011;66280;45.124;20.718;2024-02-26T10:29:57;14.83;;;10.07;;
77248;SDS011;66280;45.124;20.718;2024-02-26T10:39:59;7.32;;;6.47;;
77248;SDS011;66280;45.124;20.718;2024-02-26T10:50:03;7.13;;;6.43;;
77248;SDS011;66280;45.124;20.718;2024-02-26T11:00:06;8.63;;;7.47;;
77248;SDS011;66280;45.124;20.718;2024-02-26T11:10:11;8.50;;;7.70;;
77248;SDS011;66280;45.124;20.718;2024-02-26T11:20:13;11.67;;;6.50;;
77248;SDS011;66280;45.124;20.718;2024-02-26T11:30:15;9.70;;;7.20;;
77248;SDS011;66280;45.124;20.718;2024-02-26T11:40:18;9.68;;;7.18;;
77248;SDS011;66280;45.124;20.718;2024-02-26T11:50:35;9.07;;;7.07;;
77248;SDS011;66280;45.124;20.718;2024-02-26T12:00:39;8.03;;;7.03;;
77248;SDS011;66280;45.124;20.718;2024-02-26T12:10:41;6.43;;;5.77;;
77248;SDS011;66280;45.124;20.718;2024-02-26T12:21:01;12.07;;;7.93;;
77248;SDS011;66280;45.124;20.718;2024-02-26T12:31:04;6.40;;;5.80;;
77248;SDS011;66280;45.124;20.718;2024-02-26T12:41:06;7.77;;;6.10;;
77248;SDS011;66280;45.124;20.718;2024-02-26T12:51:07;8.90;;;6.60;;
77248;SDS011;66280;45.124;20.718;2024-02-26T13:01:15;15.30;;;9.53;;
77248;SDS011;66280;45.124;20.718;2024-02-26T13:11:18;12.57;;;6.97;;
77248;SDS011;66280;45.124;20.718;2024-02-26T13:21:20;14.95;;;7.25;;
77248;SDS011;66280;45.124;20.718;2024-02-26T13:31:23;8.57;;;5.93;;
77248;SDS011;66280;45.124;20.718;2024-02-26T13:41:24;16.02;;;7.78;;
77248;SDS011;66280;45.124;20.718;2024-02-26T13:51:26;12.93;;;5.63;;
77248;SDS011;66280;45.124;20.718;2024-02-26T14:01:27;9.53;;;6.53;;
77248;SDS011;66280;45.124;20.718;2024-02-26T14:11:29;10.00;;;5.53;;
77248;SDS011;66280;45.124;20.718;2024-02-26T14:21:30;16.63;;;9.20;;
77248;SDS011;66280;45.124;20.718;2024-02-26T14:31:32;11.63;;;9.32;;
77248;SDS011;66280;45.124;20.718;2024-02-26T14:41:34;14.07;;;8.53;;
77248;SDS011;66280;45.124;20.718;2024-02-26T14:51:35;10.67;;;6.57;;
77248;SDS011;66280;45.124;20.718;2024-02-26T15:01:37;11.52;;;7.20;;
77248;SDS011;66280;45.124;20.718;2024-02-26T15:11:38;10.53;;;6.80;;
77248;SDS011;66280;45.124;20.718;2024-02-26T15:21:44;11.80;;;7.07;;
77248;SDS011;66280;45.124;20.718;2024-02-26T15:31:46;12.83;;;6.60;;
77248;SDS011;66280;45.124;20.718;2024-02-26T15:41:47;10.17;;;6.30;;
77248;SDS011;66280;45.124;20.718;2024-02-26T15:51:49;16.27;;;7.85;;
77248;SDS011;66280;45.124;20.718;2024-02-26T16:01:51;9.10;;;6.50;;
77248;SDS011;66280;45.124;20.718;2024-02-26T16:11:52;12.30;;;7.68;;
77248;SDS011;66280;45.124;20.718;2024-02-26T16:21:54;21.43;;;11.53;;
77248;SDS011;66280;45.124;20.718;2024-02-26T16:31:55;89.23;;;31.90;;
77248;SDS011;66280;45.124;20.718;2024-02-26T16:41:57;86.03;;;33.97;;
77248;SDS011;66280;45.124;20.718;2024-02-26T16:51:58;65.47;;;25.93;;
77248;SDS011;66280;45.124;20.718;2024-02-26T17:02:00;29.88;;;14.00;;
77248;SDS011;66280;45.124;20.718;2024-02-26T17:12:01;25.10;;;14.30;;
77248;SDS011;66280;45.124;20.718;2024-02-26T17:22:03;34.20;;;16.10;;
77248;SDS011;66280;45.124;20.718;2024-02-26T17:32:05;27.08;;;13.40;;
77248;SDS011;66280;45.124;20.718;2024-02-26T17:42:06;24.30;;;12.63;;
77248;SDS011;66280;45.124;20.718;2024-02-26T17:52:08;20.65;;;11.65;;
77248;SDS011;66280;45.124;20.718;2024-02-26T18:02:09;22.10;;;10.53;;
77248;SDS011;66280;45.124;20.718;2024-02-26T18:12:11;15.73;;;10.73;;
77248;SDS011;66280;45.124;20.718;2024-02-26T18:22:12;16.15;;;10.02;;
77248;SDS011;66280;45.124;20.718;2024-02-26T18:32:14;25.77;;;13.97;;
77248;SDS011;66280;45.124;20.718;2024-02-26T18:42:16;35.80;;;17.02;;
77248;SDS011;66280;45.124;20.718;2024-02-26T18:52:20;19.00;;;11.70;;
77248;SDS011;66280;45.124;20.718;2024-02-26T19:02:23;21.57;;;12.10;;
77248;SDS011;66280;45.124;20.718;2024-02-26T19:12:25;19.02;;;10.27;;
77248;SDS011;66280;45.124;20.718;2024-02-26T19:22:26;25.80;;;10.77;;
77248;SDS011;66280;45.124;20.718;2024-02-26T19:32:28;20.92;;;10.90;;
77248;SDS011;66280;45.124;20.718;2024-02-26T19:42:30;26.97;;;12.03;;
77248;SDS011;66280;45.124;20.718;2024-02-26T19:52:32;13.33;;;8.20;;
77248;SDS011;66280;45.124;20.718;2024-02-26T20:02:33;17.75;;;10.30;;
77248;SDS011;66280;45.124;20.718;2024-02-26T20:12:37;16.60;;;10.80;;
77248;SDS011;66280;45.124;20.718;2024-02-26T20:22:38;12.80;;;9.50;;
77248;SDS011;66280;45.124;20.718;2024-02-26T20:32:41;10.20;;;6.10;;
77248;SDS011;66280;45.124;20.718;2024-02-26T20:42:43;11.13;;;7.43;;
77248;SDS011;66280;45.124;20.718;2024-02-26T20:52:47;19.95;;;8.00;;
77248;SDS011;66280;45.124;20.718;2024-02-26T21:02:49;17.00;;;10.03;;
77248;SDS011;66280;45.124;20.718;2024-02-26T21:12:50;20.70;;;10.63;;
77248;SDS011;66280;45.124;20.718;2024-02-26T21:22:52;17.87;;;8.47;;
77248;SDS011;66280;45.124;20.718;2024-02-26T21:32:53;17.57;;;9.67;;
77248;SDS011;66280;45.124;20.718;2024-02-26T21:42:54;20.15;;;10.43;;
77248;SDS011;66280;45.124;20.718;2024-02-26T21:52:56;20.20;;;11.17;;
77248;SDS011;66280;45.124;20.718;2024-02-26T22:02:57;18.75;;;10.75;;
77248;SDS011;66280;45.124;20.718;2024-02-26T22:12:59;20.80;;;11.03;;
77248;SDS011;66280;45.124;20.718;2024-02-26T22:23:00;19.70;;;10.83;;
77248;SDS011;66280;45.124;20.718;2024-02-26T22:33:01;24.88;;;11.95;;
77248;SDS011;66280;45.124;20.718;2024-02-26T22:43:03;16.63;;;9.67;;
77248;SDS011;66280;45.124;20.718;2024-02-26T22:53:07;19.38;;;12.32;;
77248;SDS011;66280;45.124;20.718;2024-02-26T23:03:09;36.33;;;25.60;;
77248;SDS011;66280;45.124;20.718;2024-02-26T23:13:11;45.13;;;29.00;;
77248;SDS011;66280;45.124;20.718;2024-02-26T23:23:12;42.72;;;25.77;;
77248;SDS011;66280;45.124;20.718;2024-02-26T23:33:14;34.63;;;21.10;;
77248;SDS011;66280;45.124;20.718;2024-02-26T23:43:15;32.47;;;17.52;;
77248;SDS011;66280;45.124;20.718;2024-02-26T23:53:17;28.50;;;18.03;;
